Hlavní strana
METAR-TAF:

METAR-TAF

Letiště :

Letecká základna Columbus

Columbus, Mississippi, Spojené státy americké

zeměpisná šířka: 33-39N, zeměpisná délka: 088-27W, výška: 67 m

Aktuální stav počasí

Zpráva byla vytvořena před 24 minutami, v 17:56 UTC
Severní vítr 12 kt s nárazy do 17 kt
Teplota 12°C
Vlhkost vzduchu 38%
Tlak 1025 hPa
Viditelnost: 16.1 km
Jasno

METAR: KCBM 151756Z AUTO 35012G17KT 10SM CLR 12/M02 A3026 RMK AO2 SLP250 T01231020 10123 20019 57015 $

Čas: 12:20 (18:20 UTC)

Předpověď počasí

Zpráva byla vytvořena před 1 hodinou a 20 minutami, v 17:00 UTC
Předpověď platná od 15 v 17 UTC do 16 v 23 UTC
Severní vítr 10 kt s nárazy do 15 kt
Viditelnost 10 km a více
Jasno

TAF: KCBM 151700Z 1517/1623 35010G15KT 9999 SKC QNH3009INS TX12/1521Z TN00/1612Z/

Stav a předpovědi počasí z více než 4 000 letišť (zprávy METAR a TAF).

Červené a žluté tečky na mapě představují dostupné meteorologické stanice.

Když kurzor umístíte na tečku, zobrazí se název stanice.

Pak kliknutím zobrazíte stav a předpověď počasí.

Chcete-li změnit mapu, kliknutím na zelené tlačítko se znaménkem +mapu přiblížíte, kliknutím na zelené tlačítko se znaménkem – mapu oddálíte a kliknutím na zelené šipky přejdete na sousední mapy.


METAR-TAF: